createdAt,value
2022-12-27T00:00:46.296Z,0.00
2022-12-27T00:01:46.262Z,0.00
2022-12-27T00:02:46.316Z,0.00
2022-12-27T00:03:46.228Z,0.00
2022-12-27T00:04:46.242Z,0.00
2022-12-27T00:05:46.186Z,0.00
2022-12-27T00:06:46.234Z,0.00
2022-12-27T00:07:46.172Z,0.00
2022-12-27T00:08:46.158Z,0.00
2022-12-27T00:09:46.168Z,0.00
2022-12-27T00:10:46.144Z,0.00
2022-12-27T00:11:46.140Z,0.00
2022-12-27T00:12:46.117Z,0.00
2022-12-27T00:13:46.120Z,0.00
2022-12-27T00:14:46.109Z,0.00
2022-12-27T00:15:46.099Z,0.00
2022-12-27T00:16:46.100Z,0.00
2022-12-27T00:17:46.078Z,0.00
2022-12-27T00:18:46.071Z,0.00
2022-12-27T00:19:46.050Z,0.00
2022-12-27T00:20:46.031Z,0.00
2022-12-27T00:21:46.044Z,0.00
2022-12-27T00:22:46.046Z,0.00
2022-12-27T00:23:46.035Z,0.00
2022-12-27T00:24:46.022Z,0.00
2022-12-27T00:25:45.968Z,0.00
2022-12-27T00:26:45.958Z,0.00
2022-12-27T00:27:45.985Z,0.00
2022-12-27T00:28:45.942Z,0.00
2022-12-27T00:29:45.917Z,0.00
2022-12-27T00:30:45.910Z,0.00
2022-12-27T00:31:45.944Z,0.00
2022-12-27T00:32:45.892Z,0.00
2022-12-27T00:33:45.881Z,0.00
2022-12-27T00:34:45.891Z,0.00
2022-12-27T00:35:45.859Z,0.00
2022-12-27T00:36:45.842Z,0.00
2022-12-27T00:37:45.863Z,0.00
2022-12-27T00:38:45.839Z,0.00
2022-12-27T00:39:45.839Z,0.00
2022-12-27T00:40:45.790Z,0.00
2022-12-27T00:41:45.819Z,0.00
2022-12-27T00:42:45.793Z,0.00
2022-12-27T00:43:45.790Z,0.00
2022-12-27T00:44:45.808Z,0.00
2022-12-27T00:45:45.789Z,0.00
2022-12-27T00:46:45.729Z,0.00
2022-12-27T00:47:45.735Z,0.00
2022-12-27T00:48:45.773Z,0.00
2022-12-27T00:49:45.723Z,0.00
2022-12-27T00:50:45.689Z,0.00
2022-12-27T00:51:45.692Z,0.00
2022-12-27T00:52:45.673Z,0.00
2022-12-27T00:53:45.665Z,0.00
2022-12-27T00:54:45.650Z,0.00
2022-12-27T00:55:45.629Z,0.00
2022-12-27T00:56:45.620Z,0.00
2022-12-27T00:57:45.598Z,0.00
2022-12-27T00:58:45.619Z,0.00
2022-12-27T00:59:45.598Z,0.00
2022-12-27T01:00:52.874Z,0.00
2022-12-27T01:01:52.878Z,0.00
2022-12-27T01:02:52.834Z,0.00
2022-12-27T01:03:52.780Z,0.00
2022-12-27T01:04:52.800Z,0.00
2022-12-27T01:05:45.522Z,0.00
2022-12-27T01:06:45.516Z,0.00
2022-12-27T01:07:45.489Z,0.00
2022-12-27T01:08:45.495Z,0.00
2022-12-27T01:09:45.472Z,0.00
2022-12-27T01:10:45.497Z,0.00
2022-12-27T01:11:45.448Z,0.00
2022-12-27T01:12:45.461Z,0.00
2022-12-27T01:13:45.463Z,0.00
2022-12-27T01:14:45.419Z,0.00
2022-12-27T01:15:45.426Z,0.00
2022-12-27T01:16:45.413Z,0.00
2022-12-27T01:17:45.387Z,0.00
2022-12-27T01:18:45.393Z,0.00
2022-12-27T01:19:45.359Z,0.00
2022-12-27T01:20:45.369Z,0.00
2022-12-27T01:21:45.363Z,0.00
2022-12-27T01:22:45.320Z,0.00
2022-12-27T01:23:45.338Z,0.00
2022-12-27T01:24:45.320Z,0.00
2022-12-27T01:25:45.305Z,0.00
2022-12-27T01:26:45.283Z,0.00
2022-12-27T01:27:45.270Z,0.00
2022-12-27T01:28:45.287Z,0.00
2022-12-27T01:29:45.257Z,0.00
2022-12-27T01:30:45.243Z,0.00
2022-12-27T01:31:45.264Z,0.00
2022-12-27T01:32:45.234Z,0.00
2022-12-27T01:33:45.197Z,0.00
2022-12-27T01:34:45.216Z,0.00
2022-12-27T01:35:45.192Z,0.00
2022-12-27T01:36:45.168Z,0.00
2022-12-27T01:37:45.164Z,0.00
2022-12-27T01:38:45.194Z,0.00
2022-12-27T01:39:45.148Z,0.00
2022-12-27T01:40:45.198Z,0.00
2022-12-27T01:41:45.164Z,0.00
2022-12-27T01:42:45.132Z,0.00
2022-12-27T01:43:45.090Z,0.00
2022-12-27T01:44:45.103Z,0.00
2022-12-27T01:45:45.125Z,0.00
2022-12-27T01:46:45.052Z,0.00
2022-12-27T01:47:45.055Z,0.00
2022-12-27T01:48:45.051Z,0.00
2022-12-27T01:49:45.039Z,0.00
2022-12-27T01:50:45.041Z,0.00
2022-12-27T01:51:45.011Z,0.00
2022-12-27T01:52:44.995Z,0.00
2022-12-27T01:53:45.007Z,0.00
2022-12-27T01:54:44.972Z,0.00
2022-12-27T01:55:44.975Z,0.00
2022-12-27T01:56:44.952Z,0.00
2022-12-27T01:57:44.922Z,0.00
2022-12-27T01:58:44.939Z,0.00
2022-12-27T01:59:44.921Z,0.00
2022-12-27T02:00:44.883Z,0.00
2022-12-27T02:01:45.127Z,0.00
2022-12-27T02:02:44.978Z,0.00
2022-12-27T02:03:44.894Z,0.00
2022-12-27T02:04:44.849Z,0.00
2022-12-27T02:05:44.852Z,0.00
2022-12-27T02:06:44.864Z,0.00
2022-12-27T02:07:44.815Z,0.00
2022-12-27T02:08:44.816Z,0.00
2022-12-27T02:09:44.818Z,0.00
2022-12-27T02:10:44.802Z,0.00
2022-12-27T02:11:44.783Z,0.00
2022-12-27T02:12:44.774Z,0.00
2022-12-27T02:13:44.782Z,0.00
2022-12-27T02:14:44.735Z,0.00
2022-12-27T02:15:44.732Z,0.00
2022-12-27T02:16:44.736Z,0.00
2022-12-27T02:17:44.722Z,0.00
2022-12-27T02:18:44.682Z,0.00
2022-12-27T02:19:44.691Z,0.00
2022-12-27T02:20:44.693Z,0.00
2022-12-27T02:21:44.682Z,0.00
2022-12-27T02:22:44.643Z,0.00
2022-12-27T02:23:44.655Z,0.00
2022-12-27T02:24:44.723Z,0.00
2022-12-27T02:25:44.625Z,0.00
2022-12-27T02:26:44.670Z,0.00
2022-12-27T02:27:44.597Z,0.00
2022-12-27T02:28:44.590Z,0.00
2022-12-27T02:29:44.628Z,0.00
2022-12-27T02:30:44.586Z,0.00
2022-12-27T02:31:44.548Z,0.00
2022-12-27T02:32:44.539Z,0.00
2022-12-27T02:33:44.523Z,0.00
2022-12-27T02:34:44.514Z,0.00
2022-12-27T02:35:44.523Z,0.00
2022-12-27T02:36:44.504Z,0.00
2022-12-27T02:37:44.507Z,0.00
2022-12-27T02:38:44.493Z,0.00
2022-12-27T02:39:44.447Z,0.00
2022-12-27T02:40:44.505Z,0.00
2022-12-27T02:41:44.438Z,0.00
2022-12-27T02:42:44.414Z,0.00
2022-12-27T02:43:44.436Z,0.00
2022-12-27T02:44:44.409Z,0.00
2022-12-27T02:45:44.420Z,0.00
2022-12-27T02:46:44.374Z,0.00
2022-12-27T02:47:44.365Z,0.00
2022-12-27T02:48:44.360Z,0.00
2022-12-27T02:49:44.369Z,0.00
2022-12-27T02:50:44.331Z,0.00
2022-12-27T02:51:44.323Z,0.00
2022-12-27T02:52:44.313Z,0.00
2022-12-27T02:53:44.382Z,0.00
2022-12-27T02:54:44.308Z,0.00
2022-12-27T02:55:44.264Z,0.00
2022-12-27T02:56:44.270Z,0.00
2022-12-27T02:57:44.260Z,0.00
2022-12-27T02:58:44.245Z,0.00
2022-12-27T02:59:44.235Z,0.00
2022-12-27T03:00:44.232Z,0.00
2022-12-27T03:01:44.295Z,0.00
2022-12-27T03:02:44.295Z,0.00
2022-12-27T03:03:44.885Z,0.00
2022-12-27T03:04:44.165Z,0.00
2022-12-27T03:05:44.204Z,0.00
2022-12-27T03:06:51.414Z,0.00
2022-12-27T03:07:51.398Z,0.00
2022-12-27T03:08:51.388Z,0.00
2022-12-27T03:09:51.380Z,0.00
2022-12-27T03:10:51.389Z,0.00
2022-12-27T03:11:51.348Z,0.00
2022-12-27T03:12:44.089Z,0.00
2022-12-27T03:13:44.076Z,0.00
2022-12-27T03:14:44.061Z,0.00
2022-12-27T03:15:44.086Z,0.00
2022-12-27T03:16:44.045Z,0.00
2022-12-27T03:17:44.044Z,0.00
2022-12-27T03:18:44.019Z,0.00
2022-12-27T03:19:44.047Z,0.00
2022-12-27T03:20:44.006Z,0.00
2022-12-27T03:21:43.976Z,0.00
2022-12-27T03:22:43.986Z,0.00
2022-12-27T03:23:43.957Z,0.00
2022-12-27T03:24:43.956Z,0.00
2022-12-27T03:25:43.976Z,0.00
2022-12-27T03:26:43.946Z,0.00
2022-12-27T03:27:43.925Z,0.00
2022-12-27T03:28:43.909Z,0.00
2022-12-27T03:29:43.896Z,0.00
2022-12-27T03:30:43.956Z,0.00
2022-12-27T03:31:43.871Z,0.00
2022-12-27T03:32:43.855Z,0.00
2022-12-27T03:33:43.903Z,0.00
2022-12-27T03:34:43.836Z,0.00
2022-12-27T03:35:43.818Z,0.00
2022-12-27T03:36:43.816Z,0.00
2022-12-27T03:37:43.813Z,0.00
2022-12-27T03:38:43.799Z,0.00
2022-12-27T03:39:43.767Z,0.00
2022-12-27T03:40:43.777Z,0.00
2022-12-27T03:41:43.825Z,0.00
2022-12-27T03:42:43.761Z,0.00
2022-12-27T03:43:43.746Z,0.00
2022-12-27T03:44:43.753Z,0.00
2022-12-27T03:45:43.696Z,0.00
2022-12-27T03:46:43.794Z,0.00
2022-12-27T03:47:43.705Z,0.00
2022-12-27T03:48:43.704Z,0.00
2022-12-27T03:49:43.661Z,0.00
2022-12-27T03:50:43.680Z,0.00
2022-12-27T03:51:43.741Z,0.00
2022-12-27T03:52:43.636Z,0.00
2022-12-27T03:53:43.681Z,0.00
2022-12-27T03:54:43.939Z,0.00
2022-12-27T03:55:43.614Z,0.00
2022-12-27T03:56:43.629Z,0.00
2022-12-27T03:57:43.580Z,0.00
2022-12-27T03:58:43.583Z,0.00
2022-12-27T03:59:43.594Z,0.00
2022-12-27T04:00:43.547Z,0.00
2022-12-27T04:01:43.599Z,0.00
2022-12-27T04:02:43.655Z,0.00
2022-12-27T04:03:43.511Z,0.00
2022-12-27T04:04:43.690Z,0.00
2022-12-27T04:05:43.506Z,0.00
2022-12-27T04:06:43.470Z,0.00
2022-12-27T04:07:43.485Z,0.00
2022-12-27T04:08:43.461Z,0.00
2022-12-27T04:09:43.440Z,0.00
2022-12-27T04:10:43.430Z,0.00
2022-12-27T04:11:43.470Z,0.00
2022-12-27T04:12:43.430Z,0.00
2022-12-27T04:13:43.428Z,0.00
2022-12-27T04:14:43.429Z,0.00
2022-12-27T04:15:43.417Z,0.00
2022-12-27T04:16:43.389Z,0.00
2022-12-27T04:17:43.347Z,0.00
2022-12-27T04:18:43.353Z,0.00
2022-12-27T04:19:43.355Z,0.00
2022-12-27T04:20:43.322Z,0.00
2022-12-27T04:21:43.330Z,0.00
2022-12-27T04:22:43.306Z,0.00
2022-12-27T04:23:43.318Z,0.00
2022-12-27T04:24:43.280Z,0.00
2022-12-27T04:25:43.264Z,0.00
2022-12-27T04:26:43.275Z,0.00
2022-12-27T04:27:43.511Z,0.00
2022-12-27T04:28:43.241Z,0.00
2022-12-27T04:29:43.358Z,0.00
2022-12-27T04:30:43.219Z,0.00
2022-12-27T04:31:43.222Z,0.00
2022-12-27T04:32:43.174Z,0.00
2022-12-27T04:33:43.218Z,0.00
2022-12-27T04:34:43.156Z,0.00
2022-12-27T04:35:43.161Z,0.00
2022-12-27T04:36:43.139Z,0.00
2022-12-27T04:37:43.115Z,0.00
2022-12-27T04:38:43.131Z,0.00
2022-12-27T04:39:43.131Z,0.00
2022-12-27T04:40:43.092Z,0.00
2022-12-27T04:41:43.102Z,0.00
2022-12-27T04:42:43.083Z,0.00
2022-12-27T04:43:43.050Z,0.00
2022-12-27T04:44:43.112Z,0.00
2022-12-27T04:45:43.019Z,0.00
2022-12-27T04:46:43.120Z,0.00
2022-12-27T04:47:43.015Z,0.00
2022-12-27T04:48:43.049Z,0.00
2022-12-27T04:49:43.041Z,0.00
2022-12-27T04:50:42.978Z,0.00
2022-12-27T04:51:42.964Z,0.00
2022-12-27T04:52:42.986Z,0.00
2022-12-27T04:53:42.960Z,0.00
2022-12-27T04:54:42.946Z,0.00
2022-12-27T04:55:42.942Z,0.00
2022-12-27T04:56:42.903Z,0.00
2022-12-27T04:57:42.918Z,0.00
2022-12-27T04:58:42.887Z,0.00
2022-12-27T04:59:42.869Z,0.00
2022-12-27T05:00:42.876Z,0.00
2022-12-27T05:01:42.960Z,0.00
2022-12-27T05:02:42.965Z,0.00
2022-12-27T05:03:42.900Z,0.00
2022-12-27T05:04:43.130Z,0.00
2022-12-27T05:05:42.820Z,0.00
2022-12-27T05:06:42.786Z,0.00
2022-12-27T05:07:42.787Z,0.00
2022-12-27T05:08:42.771Z,0.00
2022-12-27T05:09:42.758Z,0.00
2022-12-27T05:10:42.777Z,0.00
2022-12-27T05:11:42.728Z,0.00
2022-12-27T05:12:42.718Z,0.00
2022-12-27T05:13:49.970Z,0.00
2022-12-27T05:14:49.981Z,0.00
2022-12-27T05:15:49.961Z,0.00
2022-12-27T05:16:50.949Z,0.00
2022-12-27T05:17:51.225Z,0.00
2022-12-27T05:18:42.661Z,0.00
2022-12-27T05:19:42.646Z,0.00
2022-12-27T05:20:49.887Z,0.00
2022-12-27T05:21:42.622Z,0.00
2022-12-27T05:22:42.643Z,0.00
2022-12-27T05:23:42.622Z,0.00
2022-12-27T05:24:42.609Z,0.00
2022-12-27T05:25:42.605Z,0.00
2022-12-27T05:26:42.585Z,0.00
2022-12-27T05:27:42.595Z,0.00
2022-12-27T05:28:42.533Z,0.00
2022-12-27T05:29:42.598Z,0.00
2022-12-27T05:30:42.518Z,0.00
2022-12-27T05:31:42.545Z,0.00
2022-12-27T05:32:42.532Z,0.00
2022-12-27T05:33:42.494Z,0.00
2022-12-27T05:34:42.471Z,0.00
2022-12-27T05:35:42.480Z,0.00
2022-12-27T05:36:42.509Z,0.00
2022-12-27T05:37:42.455Z,0.00
2022-12-27T05:38:42.421Z,0.00
2022-12-27T05:39:42.414Z,0.00
2022-12-27T05:40:42.425Z,0.00
2022-12-27T05:41:42.407Z,0.00
2022-12-27T05:42:42.390Z,0.00
2022-12-27T05:43:42.400Z,0.00
2022-12-27T05:44:42.364Z,0.00
2022-12-27T05:45:42.334Z,0.00
2022-12-27T05:46:42.381Z,0.00
2022-12-27T05:47:42.379Z,0.00
2022-12-27T05:48:42.335Z,0.00
2022-12-27T05:49:42.309Z,0.00
2022-12-27T05:50:42.295Z,0.00
2022-12-27T05:51:42.268Z,0.00
2022-12-27T05:52:42.266Z,0.00
2022-12-27T05:53:42.264Z,0.00
2022-12-27T05:54:42.266Z,0.00
2022-12-27T05:55:42.268Z,0.00
2022-12-27T05:56:42.253Z,0.00
2022-12-27T05:57:42.227Z,0.00
2022-12-27T05:58:42.205Z,0.00
2022-12-27T05:59:42.175Z,0.00
2022-12-27T06:00:42.188Z,0.00
2022-12-27T06:01:42.205Z,0.00
2022-12-27T06:02:42.480Z,0.00
2022-12-27T06:03:42.164Z,0.00
2022-12-27T06:04:42.135Z,0.00
2022-12-27T06:05:42.382Z,0.00
2022-12-27T06:06:42.115Z,0.00
2022-12-27T06:07:42.118Z,0.00
2022-12-27T06:08:42.127Z,0.00
2022-12-27T06:09:42.121Z,0.00
2022-12-27T06:10:42.075Z,0.00
2022-12-27T06:11:42.088Z,0.00
2022-12-27T06:12:42.059Z,0.00
2022-12-27T06:13:42.058Z,0.00
2022-12-27T06:14:42.187Z,0.00
2022-12-27T06:15:42.005Z,0.00
2022-12-27T06:16:42.006Z,0.00
2022-12-27T06:17:41.987Z,0.00
2022-12-27T06:18:42.001Z,0.00
2022-12-27T06:19:41.966Z,0.00
2022-12-27T06:20:41.947Z,0.00
2022-12-27T06:21:42.029Z,0.00
2022-12-27T06:22:41.920Z,0.00
2022-12-27T06:23:55.588Z,0.00
2022-12-27T06:24:42.062Z,0.00
2022-12-27T06:25:41.891Z,0.00
2022-12-27T06:26:41.946Z,0.00
2022-12-27T06:27:41.889Z,0.00
2022-12-27T06:28:41.870Z,0.00
2022-12-27T06:29:41.893Z,0.00
2022-12-27T06:30:41.838Z,0.00
2022-12-27T06:31:41.910Z,0.00
2022-12-27T06:32:41.814Z,0.00
2022-12-27T06:33:41.819Z,0.00
2022-12-27T06:34:41.797Z,0.00
2022-12-27T06:35:41.808Z,0.00
2022-12-27T06:36:41.766Z,0.00
2022-12-27T06:37:41.761Z,0.00
2022-12-27T06:38:41.828Z,0.00
2022-12-27T06:39:41.718Z,0.00
2022-12-27T06:40:41.759Z,0.00
2022-12-27T06:41:41.720Z,0.00
2022-12-27T06:42:41.699Z,0.00
2022-12-27T06:43:41.696Z,0.00
2022-12-27T06:44:41.702Z,0.00
2022-12-27T06:45:41.685Z,0.00
2022-12-27T06:46:41.665Z,0.00
2022-12-27T06:47:41.648Z,0.00
2022-12-27T06:48:41.668Z,0.00
2022-12-27T06:49:41.635Z,0.00
2022-12-27T06:50:41.618Z,0.00
2022-12-27T06:51:41.600Z,0.00
2022-12-27T06:52:41.584Z,0.00
2022-12-27T06:53:41.601Z,0.00
2022-12-27T06:54:41.559Z,0.00
2022-12-27T06:55:41.558Z,0.00
2022-12-27T06:56:41.544Z,0.00
2022-12-27T06:57:41.527Z,0.00
2022-12-27T06:58:41.523Z,0.00
2022-12-27T06:59:41.526Z,0.00
2022-12-27T07:00:41.520Z,0.00
2022-12-27T07:01:41.619Z,0.00
2022-12-27T07:02:41.564Z,0.00
2022-12-27T07:03:41.479Z,0.00
2022-12-27T07:04:41.447Z,0.00
2022-12-27T07:05:41.470Z,0.00
2022-12-27T07:06:41.464Z,0.00
2022-12-27T07:07:41.418Z,0.00
2022-12-27T07:08:41.424Z,0.00
2022-12-27T07:09:41.397Z,0.00
2022-12-27T07:10:41.381Z,0.00
2022-12-27T07:11:41.390Z,0.00
2022-12-27T07:12:41.413Z,0.00
2022-12-27T07:13:41.424Z,0.00
2022-12-27T07:14:41.342Z,0.00
2022-12-27T07:15:41.597Z,0.00
2022-12-27T07:16:41.384Z,0.00
2022-12-27T07:17:41.319Z,0.00
2022-12-27T07:18:41.297Z,0.00
2022-12-27T07:19:41.282Z,0.00
2022-12-27T07:20:41.260Z,0.00
2022-12-27T07:21:41.237Z,0.00
2022-12-27T07:22:41.240Z,5.62
2022-12-27T07:23:41.240Z,5.62
2022-12-27T07:24:41.230Z,5.62
2022-12-27T07:25:41.216Z,5.62
2022-12-27T07:26:41.209Z,5.62
2022-12-27T07:27:41.187Z,5.62
2022-12-27T07:28:41.206Z,5.62
2022-12-27T07:29:45.485Z,5.62
2022-12-27T07:30:41.155Z,11.25
2022-12-27T07:31:41.158Z,11.25
2022-12-27T07:32:41.150Z,11.25
2022-12-27T07:33:41.179Z,11.25
2022-12-27T07:34:41.198Z,11.25
2022-12-27T07:35:45.101Z,11.25
2022-12-27T07:36:41.089Z,11.25
2022-12-27T07:37:41.084Z,16.88
2022-12-27T07:38:41.079Z,16.88
2022-12-27T07:39:41.100Z,16.88
2022-12-27T07:40:41.049Z,16.88
2022-12-27T07:41:41.028Z,16.88
2022-12-27T07:42:41.011Z,22.50
2022-12-27T07:43:41.050Z,22.50
2022-12-27T07:44:41.007Z,22.50
2022-12-27T07:45:41.029Z,22.50
2022-12-27T07:46:41.008Z,28.12
2022-12-27T07:47:40.983Z,28.12
2022-12-27T07:48:40.961Z,28.12
2022-12-27T07:49:41.043Z,33.75
2022-12-27T07:50:40.935Z,33.75
2022-12-27T07:51:40.923Z,33.75
2022-12-27T07:52:40.917Z,39.38
2022-12-27T07:53:40.911Z,39.38
2022-12-27T07:54:40.913Z,39.38
2022-12-27T07:55:40.908Z,45.00
2022-12-27T07:56:40.869Z,45.00
2022-12-27T07:57:40.851Z,45.00
2022-12-27T07:58:40.859Z,50.62
2022-12-27T07:59:40.848Z,50.62
2022-12-27T08:00:40.825Z,50.62
2022-12-27T08:01:40.907Z,56.25
2022-12-27T08:02:40.800Z,56.25
2022-12-27T08:03:40.847Z,56.25
2022-12-27T08:04:40.766Z,56.25
2022-12-27T08:05:40.764Z,61.88
2022-12-27T08:06:40.743Z,61.88
2022-12-27T08:07:40.732Z,61.88
2022-12-27T08:08:40.745Z,67.50
2022-12-27T08:09:40.719Z,67.50
2022-12-27T08:10:40.717Z,67.50
2022-12-27T08:11:40.682Z,67.50
2022-12-27T08:12:40.684Z,73.12
2022-12-27T08:13:40.694Z,73.12
2022-12-27T08:14:40.653Z,73.12
2022-12-27T08:15:40.666Z,73.12
2022-12-27T08:16:40.660Z,78.75
2022-12-27T08:17:40.636Z,78.75
2022-12-27T08:18:40.620Z,78.75
2022-12-27T08:19:40.631Z,78.75
2022-12-27T08:20:40.596Z,78.75
2022-12-27T08:21:40.580Z,84.38
2022-12-27T08:22:40.595Z,84.38
2022-12-27T08:23:40.574Z,84.38
2022-12-27T08:24:40.563Z,84.38
2022-12-27T08:25:46.802Z,90.00
2022-12-27T08:26:41.537Z,90.00
2022-12-27T08:27:40.515Z,90.00
2022-12-27T08:28:40.499Z,90.00
2022-12-27T08:29:40.511Z,95.62
2022-12-27T08:30:40.520Z,95.62
2022-12-27T08:31:40.716Z,95.62
2022-12-27T08:32:40.469Z,101.25
2022-12-27T08:33:40.457Z,101.25
2022-12-27T08:34:40.429Z,101.25
2022-12-27T08:35:55.780Z,106.88
2022-12-27T08:36:56.974Z,112.50
2022-12-27T08:37:41.407Z,118.12
2022-12-27T08:38:40.384Z,118.12
2022-12-27T08:39:40.392Z,123.75
2022-12-27T08:40:40.394Z,123.75
2022-12-27T08:41:40.337Z,123.75
2022-12-27T08:42:40.331Z,118.12
2022-12-27T08:43:40.359Z,123.75
2022-12-27T08:44:40.334Z,129.38
2022-12-27T08:45:40.309Z,129.38
2022-12-27T08:46:40.348Z,135.00
2022-12-27T08:47:40.299Z,135.00
2022-12-27T08:48:40.313Z,135.00
2022-12-27T08:49:40.374Z,135.00
2022-12-27T08:50:40.256Z,140.62
2022-12-27T08:51:41.373Z,140.62
2022-12-27T08:52:40.208Z,140.62
2022-12-27T08:53:40.214Z,146.25
2022-12-27T08:54:40.220Z,146.25
2022-12-27T08:55:40.195Z,146.25
2022-12-27T08:56:40.188Z,146.25
2022-12-27T08:57:40.175Z,151.88
2022-12-27T08:58:40.158Z,151.88
2022-12-27T08:59:40.141Z,151.88
2022-12-27T09:00:40.144Z,151.88
2022-12-27T09:01:40.240Z,157.50
2022-12-27T09:02:40.264Z,157.50
2022-12-27T09:03:40.099Z,157.50
2022-12-27T09:04:40.105Z,151.88
2022-12-27T09:05:42.085Z,146.25
2022-12-27T09:06:40.062Z,157.50
2022-12-27T09:07:40.066Z,140.62
2022-12-27T09:08:40.066Z,151.88
2022-12-27T09:09:40.057Z,151.88
2022-12-27T09:10:40.037Z,135.00
2022-12-27T09:11:40.013Z,140.62
2022-12-27T09:12:39.996Z,168.75
2022-12-27T09:13:39.990Z,168.75
2022-12-27T09:14:40.001Z,163.12
2022-12-27T09:15:40.049Z,168.75
2022-12-27T09:16:39.951Z,168.75
2022-12-27T09:17:39.998Z,168.75
2022-12-27T09:18:39.925Z,168.75
2022-12-27T09:19:39.942Z,168.75
2022-12-27T09:20:39.903Z,174.38
2022-12-27T09:21:39.908Z,174.38
2022-12-27T09:22:39.941Z,174.38
2022-12-27T09:23:39.866Z,174.38
2022-12-27T09:24:39.876Z,180.00
2022-12-27T09:25:39.904Z,180.00
2022-12-27T09:26:39.863Z,180.00
2022-12-27T09:27:39.828Z,180.00
2022-12-27T09:28:39.833Z,185.62
2022-12-27T09:29:44.596Z,185.62
2022-12-27T09:30:40.903Z,185.62
2022-12-27T09:31:39.795Z,185.62
2022-12-27T09:32:39.787Z,191.25
2022-12-27T09:33:39.767Z,191.25
2022-12-27T09:34:39.814Z,191.25
2022-12-27T09:35:39.756Z,191.25
2022-12-27T09:36:39.774Z,196.88
2022-12-27T09:37:39.714Z,196.88
2022-12-27T09:38:39.733Z,196.88
2022-12-27T09:39:39.740Z,202.50
2022-12-27T09:40:39.692Z,202.50
2022-12-27T09:43:07.522Z,202.50
2022-12-27T09:43:40.643Z,208.12
2022-12-27T09:44:39.655Z,208.12
2022-12-27T09:45:39.648Z,208.12
2022-12-27T09:46:39.732Z,208.12
2022-12-27T09:47:39.606Z,208.12
2022-12-27T09:48:39.878Z,208.12
2022-12-27T09:49:39.617Z,213.75
2022-12-27T09:50:40.452Z,213.75
2022-12-27T09:51:39.565Z,213.75
2022-12-27T09:52:40.414Z,219.38
2022-12-27T09:53:39.553Z,191.25
2022-12-27T09:54:39.546Z,185.62
2022-12-27T09:55:39.548Z,208.12
2022-12-27T09:57:09.707Z,202.50
2022-12-27T09:57:40.508Z,213.75
2022-12-27T09:58:39.495Z,236.25
2022-12-27T09:59:39.490Z,247.50
2022-12-27T10:00:45.924Z,247.50
2022-12-27T10:01:40.675Z,236.25
2022-12-27T10:02:39.584Z,191.25
2022-12-27T10:03:39.447Z,196.88
2022-12-27T10:05:17.680Z,219.38
2022-12-27T10:05:40.497Z,225.00
2022-12-27T10:06:39.451Z,225.00
2022-12-27T10:07:39.413Z,230.62
2022-12-27T10:08:39.383Z,225.00
2022-12-27T10:09:39.377Z,230.62
2022-12-27T10:10:39.376Z,225.00
2022-12-27T10:11:39.364Z,230.62
2022-12-27T10:12:39.344Z,230.62
2022-12-27T10:13:39.336Z,230.62
2022-12-27T10:14:39.308Z,230.62
2022-12-27T10:15:39.352Z,230.62
2022-12-27T10:16:39.340Z,230.62
2022-12-27T10:17:39.587Z,230.62
2022-12-27T10:18:39.261Z,230.62
2022-12-27T10:19:39.277Z,230.62
2022-12-27T10:20:39.271Z,230.62
2022-12-27T10:21:39.231Z,225.00
2022-12-27T10:22:39.218Z,225.00
2022-12-27T10:23:39.202Z,230.62
2022-12-27T10:24:39.246Z,230.62
2022-12-27T10:25:39.200Z,230.62
2022-12-27T10:26:39.208Z,230.62
2022-12-27T10:27:39.188Z,230.62
2022-12-27T10:28:39.153Z,230.62
2022-12-27T10:29:39.133Z,230.62
2022-12-27T10:30:39.149Z,225.00
2022-12-27T10:31:39.204Z,230.62
2022-12-27T10:32:39.104Z,236.25
2022-12-27T10:33:39.097Z,230.62
2022-12-27T10:34:39.078Z,230.62
2022-12-27T10:35:39.095Z,230.62
2022-12-27T10:36:39.079Z,236.25
2022-12-27T10:37:39.106Z,230.62
2022-12-27T10:38:39.323Z,225.00
2022-12-27T10:39:39.033Z,225.00
2022-12-27T10:40:39.060Z,225.00
2022-12-27T10:41:39.009Z,225.00
2022-12-27T10:42:38.993Z,225.00
2022-12-27T10:43:39.247Z,225.00
2022-12-27T10:44:38.998Z,225.00
2022-12-27T10:45:38.987Z,225.00
2022-12-27T10:46:39.004Z,225.00
2022-12-27T10:47:38.955Z,230.62
2022-12-27T10:49:18.893Z,230.62
2022-12-27T10:49:39.921Z,230.62
2022-12-27T10:50:38.905Z,230.62
2022-12-27T10:51:38.891Z,230.62
2022-12-27T10:52:38.888Z,230.62
2022-12-27T10:53:38.888Z,230.62
2022-12-27T10:54:38.881Z,230.62
2022-12-27T10:55:38.840Z,236.25
2022-12-27T10:56:38.838Z,241.88
2022-12-27T10:57:38.842Z,247.50
2022-12-27T10:58:38.840Z,275.62
2022-12-27T10:59:38.802Z,298.12
2022-12-27T11:00:38.838Z,264.38
2022-12-27T11:01:38.844Z,264.38
2022-12-27T11:02:38.840Z,264.38
2022-12-27T11:03:38.751Z,264.38
2022-12-27T11:04:38.849Z,270.00
2022-12-27T11:05:38.751Z,270.00
2022-12-27T11:06:38.711Z,264.38
2022-12-27T11:07:38.703Z,264.38
2022-12-27T11:08:38.691Z,264.38
2022-12-27T11:09:38.688Z,292.50
2022-12-27T11:10:38.668Z,281.25
2022-12-27T11:11:38.701Z,326.25
2022-12-27T11:12:38.654Z,326.25
2022-12-27T11:13:38.627Z,320.62
2022-12-27T11:14:38.634Z,331.88
2022-12-27T11:15:38.621Z,331.88
2022-12-27T11:16:38.681Z,331.88
2022-12-27T11:17:38.583Z,326.25
2022-12-27T11:18:38.583Z,326.25
2022-12-27T11:19:38.624Z,331.88
2022-12-27T11:20:38.582Z,326.25
2022-12-27T11:21:38.566Z,315.00
2022-12-27T11:22:38.556Z,298.12
2022-12-27T11:23:38.552Z,298.12
2022-12-27T11:24:38.519Z,281.25
2022-12-27T11:25:38.517Z,264.38
2022-12-27T11:26:38.519Z,253.12
2022-12-27T11:27:38.515Z,253.12
2022-12-27T11:28:38.544Z,253.12
2022-12-27T11:29:38.492Z,247.50
2022-12-27T11:30:38.450Z,253.12
2022-12-27T11:31:38.530Z,253.12
2022-12-27T11:32:38.414Z,253.12
2022-12-27T11:33:38.394Z,253.12
2022-12-27T11:34:38.404Z,258.75
2022-12-27T11:35:38.436Z,258.75
2022-12-27T11:36:38.384Z,253.12
2022-12-27T11:37:38.392Z,253.12
2022-12-27T11:38:38.353Z,247.50
2022-12-27T11:39:38.349Z,247.50
2022-12-27T11:40:38.334Z,241.88
2022-12-27T11:41:38.326Z,247.50
2022-12-27T11:42:38.362Z,247.50
2022-12-27T11:43:38.297Z,247.50
2022-12-27T11:44:38.282Z,253.12
2022-12-27T11:45:38.284Z,219.38
2022-12-27T11:46:38.353Z,230.62
2022-12-27T11:47:38.267Z,219.38
2022-12-27T11:48:38.259Z,225.00
2022-12-27T11:49:38.264Z,286.88
2022-12-27T11:50:38.207Z,247.50
2022-12-27T11:51:38.218Z,253.12
2022-12-27T11:52:38.230Z,258.75
2022-12-27T11:53:38.461Z,241.88
2022-12-27T11:54:38.197Z,236.25
2022-12-27T11:55:38.189Z,230.62
2022-12-27T11:56:38.192Z,225.00
2022-12-27T11:57:38.125Z,225.00
2022-12-27T11:58:38.135Z,236.25
2022-12-27T11:59:38.135Z,258.75
2022-12-27T12:00:38.127Z,258.75
2022-12-27T12:01:38.204Z,219.38
2022-12-27T12:02:38.152Z,225.00
2022-12-27T12:03:38.141Z,213.75
2022-12-27T12:04:38.081Z,202.50
2022-12-27T12:05:38.056Z,208.12
2022-12-27T12:06:38.071Z,202.50
2022-12-27T12:07:38.026Z,202.50
2022-12-27T12:08:38.025Z,191.25
2022-12-27T12:09:38.065Z,196.88
2022-12-27T12:10:38.026Z,213.75
2022-12-27T12:11:37.989Z,185.62
2022-12-27T12:12:38.009Z,202.50
2022-12-27T12:13:37.959Z,202.50
2022-12-27T12:14:37.966Z,196.88
2022-12-27T12:15:37.950Z,202.50
2022-12-27T12:16:38.024Z,202.50
2022-12-27T12:17:37.911Z,185.62
2022-12-27T12:18:37.913Z,168.75
2022-12-27T12:19:37.919Z,151.88
2022-12-27T12:20:37.904Z,157.50
2022-12-27T12:21:37.901Z,168.75
2022-12-27T12:22:37.885Z,163.12
2022-12-27T12:23:37.862Z,168.75
2022-12-27T12:24:37.843Z,168.75
2022-12-27T12:25:37.830Z,180.00
2022-12-27T12:26:37.831Z,174.38
2022-12-27T12:27:37.855Z,180.00
2022-12-27T12:28:57.759Z,185.62
2022-12-27T12:29:38.852Z,191.25
2022-12-27T12:30:37.780Z,196.88
2022-12-27T12:31:37.800Z,202.50
2022-12-27T12:32:37.778Z,202.50
2022-12-27T12:33:37.742Z,202.50
2022-12-27T12:34:37.734Z,208.12
2022-12-27T12:35:37.759Z,208.12
2022-12-27T12:36:37.701Z,208.12
2022-12-27T12:37:37.720Z,202.50
2022-12-27T12:38:37.682Z,202.50
2022-12-27T12:39:37.719Z,202.50
2022-12-27T12:40:37.660Z,213.75
2022-12-27T12:41:37.671Z,225.00
2022-12-27T12:42:37.667Z,230.62
2022-12-27T12:43:37.658Z,230.62
2022-12-27T12:44:41.505Z,225.00
2022-12-27T12:45:37.670Z,225.00
2022-12-27T12:46:37.613Z,219.38
2022-12-27T12:47:37.632Z,219.38
2022-12-27T12:48:37.575Z,219.38
2022-12-27T12:49:37.597Z,219.38
2022-12-27T12:50:37.574Z,225.00
2022-12-27T12:51:37.542Z,225.00
2022-12-27T12:52:37.553Z,213.75
2022-12-27T12:53:37.531Z,213.75
2022-12-27T12:54:37.532Z,219.38
2022-12-27T12:55:38.812Z,225.00
2022-12-27T12:56:37.503Z,225.00
2022-12-27T12:57:37.482Z,213.75
2022-12-27T12:58:37.501Z,213.75
2022-12-27T12:59:37.481Z,213.75